Time;durP1;ratioP1;P1;durP2;ratioP2;P2;SDS_P1;SDS_P2;PMS_P1;PMS_P2;Temp;Humidity;BMP_temperature;BMP_pressure;BME280_temperature;BME280_humidity;BME280_pressure;Samples;Min_cycle;Max_cycle;Signal;HPM_P1;HPM_P2
2022/06/26 00:01:35;;;;;;;13.65;12.35;;;17.60;99.20;;;;;;4955193;28;20065;-84
2022/06/26 00:04:02;;;;;;;16.23;13.93;;;17.60;97.80;;;;;;4950863;28;20077;-84
2022/06/26 00:06:28;;;;;;;15.85;14.00;;;17.60;94.90;;;;;;4956840;28;20047;-84
2022/06/26 00:08:54;;;;;;;16.70;14.52;;;17.60;99.90;;;;;;4967803;28;20418;-85
2022/06/26 00:11:19;;;;;;;17.42;15.00;;;17.70;99.90;;;;;;4964219;28;20070;-84
2022/06/26 00:13:45;;;;;;;16.73;15.05;;;17.70;99.90;;;;;;4956322;28;20070;-84
2022/06/26 00:16:11;;;;;;;17.45;15.75;;;17.70;99.90;;;;;;4971467;28;21176;-85
2022/06/26 00:18:37;;;;;;;19.17;15.98;;;17.80;99.90;;;;;;4993981;28;20405;-85
2022/06/26 00:21:05;;;;;;;18.67;15.48;;;17.70;99.90;;;;;;4960948;28;20121;-84
2022/06/26 00:23:31;;;;;;;20.98;17.33;;;17.70;99.90;;;;;;4977449;28;20034;-84
2022/06/26 00:25:56;;;;;;;18.08;16.02;;;17.70;99.90;;;;;;4968561;28;20393;-84
2022/06/26 00:28:25;;;;;;;19.33;17.42;;;17.70;99.90;;;;;;4959098;28;20050;-84
2022/06/26 00:30:50;;;;;;;17.48;15.75;;;17.70;99.90;;;;;;4954637;28;20035;-84
2022/06/26 00:33:19;;;;;;;19.05;17.05;;;17.70;99.90;;;;;;4960392;28;20093;-84
2022/06/26 00:35:45;;;;;;;17.95;16.15;;;17.60;99.90;;;;;;4976669;28;20676;-84
2022/06/26 00:38:11;;;;;;;19.20;17.30;;;17.60;99.90;;;;;;4957475;28;20626;-84
2022/06/26 00:40:38;;;;;;;17.55;15.75;;;17.60;99.90;;;;;;4971556;28;20069;-84
2022/06/26 00:43:05;;;;;;;20.15;17.73;;;17.50;99.90;;;;;;4971672;28;20045;-84
2022/06/26 00:45:30;;;;;;;19.20;16.40;;;17.60;99.90;;;;;;4954495;28;20045;-84
2022/06/26 00:47:59;;;;;;;20.23;18.10;;;17.50;99.90;;;;;;4970466;28;20390;-84
2022/06/26 00:50:25;;;;;;;19.73;17.58;;;17.60;99.90;;;;;;4973800;28;20322;-84
2022/06/26 00:52:53;;;;;;;23.48;18.88;;;17.50;99.90;;;;;;4959780;28;20514;-84
2022/06/26 00:55:28;;;;;;;21.38;19.10;;;17.50;99.90;;;;;;4950463;28;20507;-85
2022/06/26 00:57:59;;;;;;;21.85;19.60;;;17.50;99.90;;;;;;4957250;28;20054;-84
2022/06/26 01:00:25;;;;;;;20.42;18.08;;;17.40;99.90;;;;;;4990765;28;20129;-84
2022/06/26 01:03:09;;;;;;;18.27;16.38;;;17.50;99.90;;;;;;4957551;28;20490;-84
2022/06/26 01:05:35;;;;;;;19.45;17.55;;;17.40;99.90;;;;;;4962410;28;20042;-84
2022/06/26 01:08:01;;;;;;;20.15;17.83;;;17.50;99.90;;;;;;4980218;28;20375;-84
2022/06/26 01:10:27;;;;;;;21.48;19.27;;;17.50;99.90;;;;;;4977400;28;20038;-84
2022/06/26 01:12:54;;;;;;;20.65;16.90;;;17.70;99.90;;;;;;4960986;28;20088;-84
2022/06/26 01:15:20;;;;;;;20.92;17.88;;;17.60;99.90;;;;;;4974046;28;20109;-84
2022/06/26 01:17:47;;;;;;;20.25;18.15;;;17.60;99.90;;;;;;4975827;28;20113;-84
2022/06/26 01:20:15;;;;;;;22.52;19.23;;;17.60;99.90;;;;;;4976262;28;20097;-84
2022/06/26 01:22:41;;;;;;;22.27;19.88;;;17.70;99.90;;;;;;4976104;28;20309;-84
2022/06/26 01:25:07;;;;;;;21.38;18.98;;;17.80;99.90;;;;;;4972765;28;20046;-84
2022/06/26 01:27:42;;;;;;;21.05;18.63;;;17.90;99.90;;;;;;4960189;28;20046;-84
2022/06/26 01:30:11;;;;;;;19.23;16.58;;;18.00;99.90;;;;;;4961179;28;20126;-84
2022/06/26 01:32:36;;;;;;;19.15;17.13;;;18.00;99.90;;;;;;4977313;28;20044;-84
2022/06/26 01:35:02;;;;;;;19.10;17.13;;;18.00;99.90;;;;;;4975597;28;20046;-84
2022/06/26 01:37:28;;;;;;;20.67;16.67;;;18.00;99.90;;;;;;4963145;28;20113;-84
2022/06/26 01:39:53;;;;;;;20.00;16.17;;;17.90;99.90;;;;;;4954813;28;20066;-87
2022/06/26 01:42:19;;;;;;;22.00;16.10;;;17.90;99.90;;;;;;4978657;28;20041;-88
2022/06/26 01:44:45;;;;;;;18.73;16.75;;;18.00;99.90;;;;;;4973859;28;20038;-88
2022/06/26 01:47:11;;;;;;;18.20;16.08;;;18.00;99.90;;;;;;4977109;28;20124;-87
2022/06/26 01:49:36;;;;;;;17.42;15.63;;;18.00;99.90;;;;;;4962400;28;20713;-87
2022/06/26 01:52:02;;;;;;;21.30;17.05;;;17.90;99.90;;;;;;4959159;28;20427;-87
2022/06/26 01:54:54;;;;;;;19.40;15.80;;;17.90;99.90;;;;;;4975909;28;20081;-87
2022/06/26 01:57:19;;;;;;;21.13;16.15;;;17.90;99.90;;;;;;4959790;28;20120;-88
2022/06/26 01:59:45;;;;;;;20.65;15.55;;;17.90;99.90;;;;;;4973350;28;20035;-87
2022/06/26 02:02:10;;;;;;;21.23;14.98;;;17.90;99.90;;;;;;4961152;28;20468;-87
2022/06/26 02:04:38;;;;;;;18.38;15.65;;;17.80;99.90;;;;;;4958399;28;20046;-88
2022/06/26 02:07:04;;;;;;;17.27;15.48;;;17.90;99.90;;;;;;4965273;28;20026;-87
2022/06/26 02:15:07;;;;;;;17.15;14.93;;;17.90;99.90;;;;;;4968918;28;20061;-87
2022/06/26 02:17:33;;;;;;;18.42;15.50;;;17.90;99.90;;;;;;4976631;28;20042;-86
2022/06/26 02:19:59;;;;;;;21.73;15.77;;;17.90;99.90;;;;;;4962528;28;20050;-92
2022/06/26 02:22:24;;;;;;;23.10;16.08;;;17.90;99.90;;;;;;4956122;28;20121;-87
2022/06/26 02:24:52;;;;;;;18.85;15.73;;;17.80;99.90;;;;;;4955926;28;20110;-86
2022/06/26 02:27:18;;;;;;;17.38;15.57;;;17.90;99.90;;;;;;4978212;28;20046;-87
2022/06/26 02:29:43;;;;;;;18.50;16.42;;;17.80;99.90;;;;;;4958193;28;20053;-88
2022/06/26 02:32:09;;;;;;;25.15;16.05;;;17.80;99.90;;;;;;4974647;28;20108;-91
2022/06/26 02:34:34;;;;;;;21.60;16.90;;;17.70;99.90;;;;;;4995629;28;20049;-87
2022/06/26 02:37:00;;;;;;;21.38;16.38;;;17.70;99.90;;;;;;4977630;28;20030;-88
2022/06/26 02:39:26;;;;;;;23.65;19.05;;;17.80;99.90;;;;;;4963158;28;20038;-88
2022/06/26 02:41:52;;;;;;;23.05;17.48;;;17.70;99.90;;;;;;4970668;28;20053;-90
2022/06/26 02:44:18;;;;;;;16.85;14.85;;;17.70;99.90;;;;;;4971678;28;20038;-89
2022/06/26 02:46:43;;;;;;;18.00;13.13;;;17.70;99.90;;;;;;4989069;28;20038;-89
2022/06/26 02:49:09;;;;;;;14.20;11.65;;;17.60;99.90;;;;;;4956558;28;20080;-89
2022/06/26 02:51:34;;;;;;;14.50;12.05;;;17.60;99.90;;;;;;4961543;28;20201;-89
2022/06/26 02:54:00;;;;;;;14.05;11.35;;;17.60;99.90;;;;;;4960491;28;20234;-89
2022/06/26 02:56:26;;;;;;;12.43;11.07;;;17.60;99.90;;;;;;4964418;28;20042;-89
2022/06/26 02:58:51;;;;;;;12.25;9.20;;;17.50;99.90;;;;;;4956753;28;20038;-88
2022/06/26 03:01:17;;;;;;;10.68;8.05;;;17.50;99.90;;;;;;4958837;28;20030;-89
2022/06/26 03:03:43;;;;;;;10.50;8.38;;;17.50;99.90;;;;;;4994886;28;20042;-88
2022/06/26 03:06:08;;;;;;;9.23;8.18;;;17.40;99.90;;;;;;4961267;28;20561;-88
2022/06/26 03:08:34;;;;;;;11.10;7.93;;;17.40;99.90;;;;;;4958407;28;20061;-88
2022/06/26 03:11:00;;;;;;;12.35;8.43;;;17.40;99.90;;;;;;4991640;28;20374;-88
2022/06/26 03:13:25;;;;;;;10.15;8.50;;;17.30;99.90;;;;;;4979057;28;20121;-88
2022/06/26 03:15:51;;;;;;;9.55;8.18;;;17.40;99.90;;;;;;4988938;28;20043;-88
2022/06/26 03:18:17;;;;;;;10.35;8.30;;;17.30;99.90;;;;;;4958059;28;20038;-88
2022/06/26 03:20:43;;;;;;;10.98;8.43;;;17.30;99.90;;;;;;4959613;28;20037;-88
2022/06/26 03:23:09;;;;;;;10.52;8.25;;;17.30;99.90;;;;;;4977544;28;20042;-88
2022/06/26 03:25:35;;;;;;;11.30;8.25;;;17.20;99.90;;;;;;4958471;28;20607;-88
2022/06/26 03:28:00;;;;;;;11.38;8.43;;;17.20;99.90;;;;;;4975081;28;20307;-89
2022/06/26 03:30:26;;;;;;;11.77;7.88;;;17.20;99.90;;;;;;4958952;28;20125;-87
2022/06/26 03:32:52;;;;;;;9.70;7.70;;;17.20;99.90;;;;;;4990385;28;20046;-88
2022/06/26 03:35:18;;;;;;;11.70;8.00;;;17.20;99.90;;;;;;4957523;28;20220;-89
2022/06/26 03:37:43;;;;;;;9.02;8.13;;;17.20;99.90;;;;;;4958719;28;20312;-88
2022/06/26 03:40:10;;;;;;;10.32;8.32;;;17.20;99.90;;;;;;4962120;28;20129;-89
2022/06/26 03:42:36;;;;;;;9.18;8.18;;;17.10;99.90;;;;;;4954747;28;20086;-88
2022/06/26 03:45:03;;;;;;;8.85;7.90;;;17.20;99.90;;;;;;4955693;28;20042;-88
2022/06/26 03:47:28;;;;;;;8.75;7.15;;;17.10;99.90;;;;;;4955548;28;20026;-88
2022/06/26 03:49:54;;;;;;;8.55;7.47;;;17.10;99.90;;;;;;4962219;28;20466;-88
2022/06/26 03:52:23;;;;;;;7.75;6.75;;;17.10;99.90;;;;;;4957050;28;20118;-88
2022/06/26 03:54:49;;;;;;;7.35;6.65;;;17.10;99.90;;;;;;4974268;28;20054;-89
2022/06/26 03:57:15;;;;;;;9.48;7.03;;;17.10;99.90;;;;;;4967659;28;20376;-88
2022/06/26 03:59:44;;;;;;;8.23;6.55;;;17.10;99.90;;;;;;4966420;28;20104;-87
2022/06/26 04:02:10;;;;;;;8.02;6.18;;;17.10;99.90;;;;;;4956615;28;20135;-88
2022/06/26 04:04:35;;;;;;;9.80;6.30;;;17.00;99.90;;;;;;4978457;28;20034;-88
2022/06/26 04:07:01;;;;;;;7.47;5.65;;;17.10;99.90;;;;;;4988731;28;20065;-88
2022/06/26 04:09:26;;;;;;;7.82;6.47;;;17.00;99.90;;;;;;4957189;28;20039;-88
2022/06/26 04:11:52;;;;;;;6.07;5.43;;;17.10;99.90;;;;;;4978558;28;20289;-88
2022/06/26 04:14:18;;;;;;;6.63;5.97;;;17.10;99.90;;;;;;4960054;28;20050;-88
2022/06/26 04:16:44;;;;;;;7.40;5.80;;;17.20;99.90;;;;;;4977138;28;20836;-89
2022/06/26 04:19:09;;;;;;;8.32;6.30;;;17.20;99.90;;;;;;4994972;28;20046;-88
2022/06/26 04:21:35;;;;;;;8.45;5.65;;;17.30;99.90;;;;;;4977942;28;20027;-88
2022/06/26 04:24:01;;;;;;;8.88;5.70;;;17.30;99.90;;;;;;4963712;28;20124;-88
2022/06/26 04:26:26;;;;;;;7.22;5.45;;;17.30;99.90;;;;;;4994387;28;20120;-88
2022/06/26 04:28:52;;;;;;;6.35;5.22;;;17.30;99.90;;;;;;4962591;28;20089;-88
2022/06/26 04:31:18;;;;;;;7.30;6.00;;;17.40;99.90;;;;;;4975567;28;20050;-89
2022/06/26 04:33:44;;;;;;;7.22;5.50;;;17.40;99.90;;;;;;4993183;28;20074;-89
2022/06/26 04:36:18;;;;;;;7.38;5.50;;;17.50;99.90;;;;;;4972566;28;20035;-87
2022/06/26 04:38:44;;;;;;;6.97;5.22;;;17.50;99.90;;;;;;4983590;28;20046;-89
2022/06/26 04:43:54;;;;;;;7.10;5.18;;;17.50;99.90;;;;;;4981970;28;20470;-88
2022/06/26 04:46:20;;;;;;;8.68;5.43;;;17.50;99.90;;;;;;4981447;28;20112;-88
2022/06/26 04:48:48;;;;;;;7.38;5.35;;;17.50;99.90;;;;;;4980693;28;20125;-89
2022/06/26 04:51:14;;;;;;;5.70;4.95;;;17.50;99.90;;;;;;4987080;28;20049;-89
2022/06/26 04:53:40;;;;;;;5.72;5.13;;;17.40;99.90;;;;;;4962702;28;20034;-88
2022/06/26 04:56:06;;;;;;;6.95;5.22;;;17.40;99.90;;;;;;4981572;28;20073;-89
2022/06/26 04:58:31;;;;;;;6.50;4.97;;;17.40;99.90;;;;;;4995062;28;20066;-89
2022/06/26 05:00:58;;;;;;;4.85;4.43;;;17.40;99.90;;;;;;4981805;28;20050;-88
2022/06/26 05:03:23;;;;;;;5.80;4.72;;;17.40;99.90;;;;;;4982125;28;20049;-88
2022/06/26 05:05:52;;;;;;;6.80;4.90;;;17.40;99.90;;;;;;4999049;28;20537;-88
2022/06/26 05:08:18;;;;;;;6.05;4.72;;;17.50;99.90;;;;;;4960289;28;20038;-88
2022/06/26 05:10:43;;;;;;;6.63;5.55;;;17.60;99.90;;;;;;4965311;28;20057;-88
2022/06/26 05:13:09;;;;;;;5.90;5.30;;;17.70;99.90;;;;;;4961537;28;20115;-90
2022/06/26 05:15:35;;;;;;;6.03;5.18;;;17.70;99.90;;;;;;4963670;28;20352;-89
2022/06/26 05:18:01;;;;;;;7.25;5.30;;;17.80;99.90;;;;;;4978965;28;20042;-89
2022/06/26 05:20:27;;;;;;;7.07;5.70;;;18.00;99.90;;;;;;4998801;28;20511;-89
2022/06/26 05:22:53;;;;;;;5.95;5.15;;;18.10;99.90;;;;;;4993483;28;20182;-89
2022/06/26 05:25:19;;;;;;;6.78;5.80;;;18.20;99.90;;;;;;4998044;28;20096;-89
2022/06/26 05:27:44;;;;;;;6.25;5.65;;;18.30;99.90;;;;;;4997944;28;20194;-88
2022/06/26 05:30:10;;;;;;;7.57;5.93;;;18.40;99.90;;;;;;4983408;28;20120;-89
2022/06/26 05:32:36;;;;;;;6.78;6.10;;;18.40;99.90;;;;;;4966013;28;20210;-89
2022/06/26 05:35:05;;;;;;;8.35;5.95;;;18.10;99.90;;;;;;4981804;28;20038;-88
2022/06/26 05:37:31;;;;;;;7.40;5.93;;;18.10;99.90;;;;;;4981119;28;20050;-89
2022/06/26 05:39:59;;;;;;;7.57;6.85;;;18.20;99.90;;;;;;4961027;28;20123;-89
2022/06/26 05:42:25;;;;;;;8.38;6.75;;;18.10;99.90;;;;;;4997366;28;20411;-89
2022/06/26 05:44:50;;;;;;;7.70;6.90;;;18.10;99.90;;;;;;4963813;28;20037;-88
2022/06/26 05:47:16;;;;;;;8.27;7.00;;;18.10;99.90;;;;;;4995628;28;20077;-89
2022/06/26 05:49:42;;;;;;;7.93;7.05;;;18.20;99.90;;;;;;4992347;28;20068;-89
2022/06/26 05:52:08;;;;;;;7.93;7.15;;;18.20;99.90;;;;;;4994645;28;20545;-89
2022/06/26 05:54:33;;;;;;;10.48;7.38;;;18.20;99.90;;;;;;4961316;28;20046;-89
2022/06/26 05:56:59;;;;;;;8.43;7.55;;;18.10;99.90;;;;;;4980231;28;20043;-89
2022/06/26 05:59:28;;;;;;;12.00;9.70;;;18.20;99.90;;;;;;4961692;28;20046;-89
2022/06/26 06:01:53;;;;;;;10.50;9.38;;;18.10;99.90;;;;;;4956509;28;20035;-89
2022/06/26 06:04:19;;;;;;;10.65;9.05;;;18.10;99.90;;;;;;4996948;28;20114;-89
2022/06/26 06:06:44;;;;;;;9.68;8.65;;;18.10;99.90;;;;;;4963501;28;20072;-89
2022/06/26 06:09:11;;;;;;;9.93;8.88;;;18.20;99.90;;;;;;4978616;28;20435;-90
2022/06/26 06:11:36;;;;;;;9.75;8.75;;;18.20;99.90;;;;;;4992954;28;20042;-89
2022/06/26 06:14:02;;;;;;;12.05;9.70;;;18.10;99.90;;;;;;4977800;28;20042;-89
2022/06/26 06:16:28;;;;;;;11.52;9.68;;;18.20;99.90;;;;;;4977549;28;20046;-89
2022/06/26 06:18:53;;;;;;;10.38;9.27;;;18.40;99.90;;;;;;4992980;28;20046;-89
2022/06/26 06:21:19;;;;;;;11.18;9.63;;;18.60;99.90;;;;;;4968361;28;20038;-88
2022/06/26 06:23:45;;;;;;;12.10;10.80;;;18.60;99.90;;;;;;4971107;28;20314;-89
2022/06/26 06:26:11;;;;;;;13.77;10.02;;;18.60;99.90;;;;;;4979459;28;20173;-90
2022/06/26 06:28:37;;;;;;;11.63;10.43;;;18.50;99.90;;;;;;4965866;28;20113;-88
2022/06/26 06:31:03;;;;;;;13.25;10.98;;;18.70;99.90;;;;;;4961686;28;20177;-89
2022/06/26 06:33:29;;;;;;;11.75;10.40;;;18.70;99.90;;;;;;4977565;28;20497;-89
2022/06/26 06:35:55;;;;;;;12.88;10.52;;;18.70;99.90;;;;;;4977775;28;20520;-89
2022/06/26 06:38:25;;;;;;;12.50;11.20;;;19.00;99.90;;;;;;4977518;28;20069;-88
2022/06/26 06:40:52;;;;;;;12.95;11.52;;;18.90;99.90;;;;;;4956813;28;20510;-89
2022/06/26 06:43:17;;;;;;;13.82;12.35;;;19.10;99.90;;;;;;4956678;28;20044;-89
2022/06/26 06:45:43;;;;;;;13.55;12.25;;;19.00;68.70;;;;;;4968086;28;20446;-88
2022/06/26 06:48:11;;;;;;;13.15;11.75;;;19.00;30.80;;;;;;4973019;28;20089;-89
2022/06/26 06:50:37;;;;;;;15.27;13.55;;;19.10;85.80;;;;;;4962244;28;20090;-89
2022/06/26 06:53:03;;;;;;;15.73;13.93;;;19.10;1.00;;;;;;4960101;28;20084;-88
2022/06/26 06:55:29;;;;;;;18.13;14.50;;;19.10;19.10;;;;;;4958486;28;20284;-89
2022/06/26 06:57:55;;;;;;;15.40;13.90;;;19.10;1.00;;;;;;4977268;28;20046;-89
2022/06/26 07:00:20;;;;;;;17.60;15.80;;;19.00;1.00;;;;;;4975670;28;20782;-88
2022/06/26 07:02:46;;;;;;;19.80;16.33;;;18.90;23.30;;;;;;4962364;28;20549;-89
2022/06/26 07:05:12;;;;;;;17.83;15.93;;;18.90;33.80;;;;;;4959788;28;20038;-88
2022/06/26 07:07:37;;;;;;;18.08;16.17;;;18.90;61.80;;;;;;4964501;28;20034;-89
2022/06/26 07:10:04;;;;;;;23.50;17.33;;;19.10;37.50;;;;;;4956445;28;20434;-88
2022/06/26 07:12:32;;;;;;;20.95;17.67;;;19.30;1.00;;;;;;4975609;28;20034;-88
2022/06/26 07:14:58;;;;;;;19.88;17.75;;;19.50;1.00;;;;;;4976917;28;20473;-88
2022/06/26 07:17:24;;;;;;;19.42;16.88;;;19.50;1.00;;;;;;4959697;28;20034;-89
2022/06/26 07:19:50;;;;;;;18.50;16.60;;;20.10;1.00;;;;;;4978291;28;20352;-89
2022/06/26 07:22:18;;;;;;;18.90;16.92;;;20.00;1.00;;;;;;4960177;28;20030;-88
2022/06/26 07:24:44;;;;;;;19.98;17.88;;;20.30;1.00;;;;;;4956656;28;20035;-89
2022/06/26 07:27:09;;;;;;;19.73;17.63;;;20.00;99.90;;;;;;4961670;28;20105;-89
2022/06/26 07:29:35;;;;;;;20.08;17.98;;;19.80;99.90;;;;;;4958798;28;20049;-90
2022/06/26 07:32:01;;;;;;;22.55;17.95;;;19.50;99.90;;;;;;4957028;28;20498;-88
2022/06/26 07:34:27;;;;;;;20.95;18.75;;;19.50;99.90;;;;;;4962992;28;20497;-89
2022/06/26 07:36:52;;;;;;;20.40;18.30;;;19.40;99.90;;;;;;4975211;28;20035;-89
2022/06/26 07:39:20;;;;;;;19.23;17.33;;;19.30;99.90;;;;;;4962101;28;20069;-89
2022/06/26 07:41:47;;;;;;;20.08;17.40;;;19.20;99.90;;;;;;4972827;28;20113;-88
2022/06/26 07:44:14;;;;;;;18.92;16.50;;;19.50;99.90;;;;;;4957251;28;20490;-89
2022/06/26 07:46:41;;;;;;;18.40;16.05;;;19.60;99.90;;;;;;4969743;28;20054;-88
2022/06/26 07:49:07;;;;;;;18.40;16.42;;;19.80;99.90;;;;;;4976085;28;20141;-89
2022/06/26 07:51:34;;;;;;;17.73;15.60;;;19.90;99.90;;;;;;4991800;28;20046;-88
2022/06/26 07:54:00;;;;;;;18.42;16.48;;;20.00;99.90;;;;;;4960936;28;20469;-89
2022/06/26 07:56:28;;;;;;;18.77;16.33;;;20.00;99.90;;;;;;4973435;28;20046;-89
2022/06/26 07:58:55;;;;;;;18.48;15.93;;;20.00;99.90;;;;;;4991620;28;20680;-89
2022/06/26 08:01:22;;;;;;;19.23;16.73;;;20.10;99.90;;;;;;4956113;28;20764;-89
2022/06/26 08:03:47;;;;;;;18.92;16.67;;;20.20;99.90;;;;;;4960264;28;20451;-89
2022/06/26 08:06:14;;;;;;;17.05;14.48;;;20.50;99.90;;;;;;4973498;28;20137;-89
2022/06/26 08:08:39;;;;;;;16.33;13.80;;;20.40;99.90;;;;;;4958010;28;20410;-88
2022/06/26 08:11:05;;;;;;;16.90;14.57;;;20.60;99.90;;;;;;4957695;28;20049;-89
2022/06/26 08:13:31;;;;;;;20.27;16.95;;;20.70;99.90;;;;;;4973845;28;20078;-88
2022/06/26 08:15:57;;;;;;;20.92;17.83;;;20.80;99.90;;;;;;4971433;28;20683;-88
2022/06/26 08:18:23;;;;;;;18.50;16.58;;;21.40;99.90;;;;;;4960915;28;20431;-88
2022/06/26 08:20:49;;;;;;;18.52;16.55;;;21.90;99.90;;;;;;4975903;28;20372;-88
2022/06/26 08:23:15;;;;;;;17.98;16.17;;;21.80;99.90;;;;;;4973837;28;20052;-88
2022/06/26 08:25:40;;;;;;;18.35;16.42;;;21.60;99.90;;;;;;4957060;28;20096;-88
2022/06/26 08:28:07;;;;;;;17.58;15.88;;;21.50;99.90;;;;;;4974033;28;20533;-88
2022/06/26 08:30:32;;;;;;;15.57;12.98;;;21.10;99.90;;;;;;4953696;28;20082;-88
2022/06/26 08:32:59;;;;;;;13.90;12.52;;;20.80;99.90;;;;;;4958463;28;20046;-89
2022/06/26 08:35:26;;;;;;;15.43;13.25;;;21.00;99.90;;;;;;4973862;28;20406;-88
2022/06/26 08:37:53;;;;;;;15.90;14.27;;;21.00;99.90;;;;;;4974934;28;20030;-89
2022/06/26 08:40:19;;;;;;;16.15;14.45;;;21.40;99.90;;;;;;4957793;28;20301;-89
2022/06/26 08:42:49;;;;;;;15.43;13.35;;;21.30;99.90;;;;;;4957318;28;20338;-88
2022/06/26 08:45:17;;;;;;;15.68;13.88;;;20.80;99.90;;;;;;4971771;28;20042;-89
2022/06/26 08:47:47;;;;;;;15.48;13.98;;;20.90;99.90;;;;;;4955035;28;20041;-88
2022/06/26 08:50:13;;;;;;;15.93;14.32;;;20.80;99.90;;;;;;4972331;28;20394;-88
2022/06/26 08:52:40;;;;;;;15.68;14.18;;;21.20;99.90;;;;;;4956178;28;20116;-88
2022/06/26 08:55:06;;;;;;;16.00;14.32;;;20.80;99.90;;;;;;4959207;28;20066;-89
2022/06/26 08:57:33;;;;;;;15.95;14.45;;;20.40;99.90;;;;;;4960078;28;20417;-89
2022/06/26 09:00:03;;;;;;;15.90;14.40;;;20.40;99.90;;;;;;4961003;28;20046;-88
2022/06/26 09:02:29;;;;;;;14.93;13.63;;;20.40;99.90;;;;;;4955881;28;20423;-88
2022/06/26 09:04:56;;;;;;;15.23;13.65;;;20.70;99.90;;;;;;4976452;28;20038;-89
2022/06/26 09:07:22;;;;;;;15.98;12.90;;;20.70;99.90;;;;;;4952894;28;20446;-89
2022/06/26 09:09:48;;;;;;;13.43;11.98;;;20.50;99.90;;;;;;4973039;28;20034;-88
2022/06/26 09:12:14;;;;;;;14.57;12.05;;;20.50;99.90;;;;;;4952504;28;20035;-88
2022/06/26 09:14:39;;;;;;;15.07;11.85;;;20.50;99.90;;;;;;4957682;28;20046;-89
2022/06/26 09:17:05;;;;;;;13.63;11.93;;;20.40;99.90;;;;;;4972359;28;20164;-88
2022/06/26 09:19:41;;;;;;;12.98;10.35;;;20.40;99.90;;;;;;4974683;28;20133;-88
2022/06/26 09:22:12;;;;;;;10.38;8.77;;;20.70;99.90;;;;;;4956034;28;20493;-88
2022/06/26 09:24:54;;;;;;;6.18;5.03;;;20.60;91.80;;;;;;4964986;28;20482;-88
2022/06/26 09:27:21;;;;;;;5.80;4.57;;;20.80;22.60;;;;;;4975191;28;20041;-89
2022/06/26 09:29:52;;;;;;;4.60;3.15;;;21.50;99.70;;;;;;4980305;28;20406;-88
2022/06/26 09:32:19;;;;;;;4.40;3.33;;;21.80;1.00;;;;;;4966782;28;20050;-88
2022/06/26 09:34:59;;;;;;;5.45;3.90;;;22.00;1.00;;;;;;4971047;28;20117;-89
2022/06/26 09:37:33;;;;;;;5.22;3.33;;;22.00;1.00;;;;;;4962529;28;20423;-88
2022/06/26 09:40:03;;;;;;;4.67;3.60;;;22.60;1.00;;;;;;4958880;28;20172;-89
2022/06/26 09:42:32;;;;;;;3.95;3.50;;;22.60;1.00;;;;;;4990803;28;20065;-88
2022/06/26 09:44:59;;;;;;;4.72;3.97;;;22.50;1.00;;;;;;4974050;28;20050;-89
2022/06/26 09:47:30;;;;;;;4.43;3.60;;;22.60;1.00;;;;;;4972514;28;20050;-89
2022/06/26 09:50:00;;;;;;;5.15;3.60;;;23.20;1.00;;;;;;4962377;28;20516;-89
2022/06/26 09:52:30;;;;;;;5.57;3.83;;;23.10;1.00;;;;;;4963423;28;20031;-89
2022/06/26 09:54:57;;;;;;;4.95;3.53;;;23.20;1.00;;;;;;4959051;28;20129;-88
2022/06/26 09:57:23;;;;;;;4.80;4.15;;;23.00;1.00;;;;;;4976447;28;20046;-89
2022/06/26 09:59:48;;;;;;;6.15;4.88;;;22.60;1.00;;;;;;4976350;28;20034;-88
2022/06/26 10:08:03;;;;;;;8.30;4.90;;;21.80;1.00;;;;;;4973673;28;20045;-87
2022/06/26 10:10:31;;;;;;;6.18;5.00;;;22.50;1.00;;;;;;4975988;28;20474;-87
2022/06/26 10:13:03;;;;;;;5.93;4.72;;;22.50;1.00;;;;;;4956502;28;20038;-87
2022/06/26 10:15:40;;;;;;;7.85;4.68;;;22.50;1.00;;;;;;4959346;28;20799;-87
2022/06/26 10:18:34;;;;;;;5.68;4.10;;;22.90;1.00;;;;;;4956385;28;20057;-88
2022/06/26 10:21:12;;;;;;;4.50;4.10;;;23.30;1.00;;;;;;4974388;28;20039;-88
2022/06/26 10:23:39;;;;;;;6.93;4.22;;;22.90;1.00;;;;;;4972969;28;20035;-87
2022/06/26 10:26:20;;;;;;;4.63;3.70;;;23.30;1.00;;;;;;4986671;28;20056;-87
2022/06/26 10:29:02;;;;;;;4.32;3.30;;;23.70;1.00;;;;;;4962060;28;20038;-87
2022/06/26 10:31:48;;;;;;;3.40;3.10;;;23.20;1.00;;;;;;4954268;28;20164;-87
2022/06/26 10:34:14;;;;;;;4.93;3.33;;;23.20;1.00;;;;;;4959487;28;20498;-88
2022/06/26 10:36:40;;;;;;;3.45;2.72;;;23.40;1.00;;;;;;4960041;28;20026;-87
2022/06/26 10:39:06;;;;;;;4.78;3.33;;;23.40;1.00;;;;;;4985311;28;20047;-87
2022/06/26 10:44:34;;;;;;;2.65;2.00;;;23.40;99.90;;;;;;4972373;28;20112;-87
2022/06/26 10:47:00;;;;;;;3.13;2.13;;;23.20;99.90;;;;;;4969693;28;20076;-87
2022/06/26 10:49:26;;;;;;;3.78;2.35;;;23.30;99.90;;;;;;4956513;28;20056;-87
2022/06/26 10:51:52;;;;;;;2.70;2.35;;;23.40;1.00;;;;;;4961602;28;20345;-87
2022/06/26 10:54:22;;;;;;;3.83;2.53;;;23.20;99.90;;;;;;4969650;28;21578;-87
2022/06/26 10:57:03;;;;;;;4.75;2.50;;;23.40;99.90;;;;;;4991554;28;20045;-87
2022/06/26 10:59:44;;;;;;;5.07;2.50;;;23.40;99.90;;;;;;4977324;28;20129;-87
2022/06/26 11:02:11;;;;;;;4.45;2.25;;;23.40;99.90;;;;;;4969777;28;20042;-87
2022/06/26 11:04:48;;;;;;;3.60;2.45;;;23.70;1.00;;;;;;4956708;28;20041;-88
2022/06/26 11:07:15;;;;;;;4.35;2.40;;;23.40;99.90;;;;;;4959432;28;20415;-88
2022/06/26 11:09:41;;;;;;;4.18;2.20;;;23.80;1.00;;;;;;4973620;28;20054;-88
2022/06/26 11:12:08;;;;;;;3.50;2.20;;;23.80;99.90;;;;;;4957187;28;20042;-88
2022/06/26 11:14:33;;;;;;;2.67;2.20;;;23.90;99.90;;;;;;4961913;28;20089;-88
2022/06/26 11:16:59;;;;;;;2.78;2.08;;;24.10;99.90;;;;;;4989812;28;20038;-88
2022/06/26 11:19:28;;;;;;;3.42;2.20;;;24.10;99.90;;;;;;4959307;28;20042;-88
2022/06/26 11:22:07;;;;;;;4.07;2.50;;;24.50;99.90;;;;;;4964950;28;20121;-88
2022/06/26 11:24:33;;;;;;;4.57;2.40;;;25.10;99.90;;;;;;4970123;28;20050;-88
2022/06/26 11:27:00;;;;;;;3.35;2.60;;;25.60;99.90;;;;;;4994046;28;20347;-88
2022/06/26 11:29:26;;;;;;;3.25;2.83;;;25.30;99.90;;;;;;4962300;28;20057;-88
2022/06/26 11:31:53;;;;;;;3.65;2.55;;;25.10;99.90;;;;;;4982599;28;20038;-88
2022/06/26 11:34:20;;;;;;;5.43;3.00;;;24.90;99.90;;;;;;4970161;28;20030;-88
2022/06/26 11:36:50;;;;;;;4.28;2.80;;;24.70;99.90;;;;;;4965661;28;20039;-87
2022/06/26 11:39:16;;;;;;;3.78;2.58;;;24.40;99.90;;;;;;4979492;28;20203;-88
2022/06/26 11:41:42;;;;;;;3.80;2.90;;;24.50;99.90;;;;;;4983625;28;20042;-88
2022/06/26 11:44:08;;;;;;;4.40;2.75;;;24.40;99.90;;;;;;4991439;28;20046;-88
2022/06/26 11:46:34;;;;;;;3.95;3.10;;;24.50;99.90;;;;;;4976531;28;20350;-88
2022/06/26 11:49:00;;;;;;;11.95;4.40;;;24.70;99.90;;;;;;4985708;28;20418;-88
2022/06/26 11:51:32;;;;;;;6.35;3.30;;;24.70;99.90;;;;;;4960773;28;20438;-88
2022/06/26 11:53:58;;;;;;;3.80;2.65;;;25.10;99.90;;;;;;4955819;28;20145;-88
2022/06/26 11:56:26;;;;;;;3.25;2.40;;;25.40;99.90;;;;;;4975170;28;20038;-88
2022/06/26 11:58:58;;;;;;;5.57;2.72;;;25.30;99.90;;;;;;4976356;28;20509;-88
2022/06/26 12:01:35;;;;;;;9.00;3.22;;;24.90;99.90;;;;;;4954199;28;20495;-88
2022/06/26 12:04:01;;;;;;;4.05;2.60;;;25.00;99.90;;;;;;4990538;28;20577;-88
2022/06/26 12:06:28;;;;;;;4.60;2.10;;;24.90;99.90;;;;;;4958042;28;20026;-88
2022/06/26 12:08:55;;;;;;;3.90;2.50;;;25.30;99.90;;;;;;4950473;28;20050;-89
2022/06/26 12:11:20;;;;;;;3.95;2.20;;;24.90;99.90;;;;;;4971695;28;20056;-88
2022/06/26 12:13:46;;;;;;;3.60;2.28;;;25.30;99.90;;;;;;4959023;28;20035;-89
2022/06/26 12:16:12;;;;;;;4.57;2.45;;;25.20;99.90;;;;;;4974256;28;20117;-88
2022/06/26 12:18:41;;;;;;;4.28;2.42;;;25.20;99.90;;;;;;4956127;28;20023;-89
2022/06/26 12:21:36;;;;;;;2.95;1.92;;;25.20;99.90;;;;;;4985138;28;20046;-88
2022/06/26 12:24:01;;;;;;;3.53;2.13;;;25.10;99.90;;;;;;4971737;28;20795;-88
2022/06/26 12:26:28;;;;;;;3.25;2.20;;;25.30;99.90;;;;;;4973831;28;20042;-88
2022/06/26 12:29:01;;;;;;;6.60;2.13;;;25.50;99.90;;;;;;4992143;28;20057;-88
2022/06/26 12:31:27;;;;;;;5.78;2.45;;;26.00;99.90;;;;;;4974160;28;20046;-89
2022/06/26 12:33:53;;;;;;;4.32;2.25;;;25.80;99.90;;;;;;4989505;28;20471;-89
2022/06/26 12:36:19;;;;;;;4.70;2.53;;;25.80;99.90;;;;;;4957766;28;20590;-88
2022/06/26 12:38:57;;;;;;;4.72;2.47;;;25.70;99.90;;;;;;4994864;28;20042;-88
2022/06/26 12:41:26;;;;;;;7.03;2.60;;;25.50;99.90;;;;;;4973770;28;20436;-87
2022/06/26 12:43:55;;;;;;;5.18;2.45;;;25.10;99.90;;;;;;4958683;28;20061;-88
2022/06/26 12:46:21;;;;;;;3.35;2.30;;;25.10;99.90;;;;;;4969043;28;20042;-88
2022/06/26 12:48:48;;;;;;;5.40;2.58;;;25.00;99.90;;;;;;4969706;28;20117;-89
2022/06/26 12:51:15;;;;;;;3.85;2.28;;;24.90;99.90;;;;;;4959135;28;20492;-89
2022/06/26 12:53:41;;;;;;;3.58;2.30;;;24.60;99.90;;;;;;4960359;28;20085;-89
2022/06/26 12:56:07;;;;;;;4.80;2.33;;;24.70;99.90;;;;;;4958553;28;20358;-90